sensor_id;sensor_type;location;lat;lon;timestamp;pressure;altitude;pressure_sealevel;temperature;humidity
45323;BME280;31382;50.200;8.674;2024-01-06T00:02:10;99140.56;;;6.36;69.51
45323;BME280;31382;50.200;8.674;2024-01-06T00:07:12;99142.94;;;6.31;69.56
45323;BME280;31382;50.200;8.674;2024-01-06T00:12:15;99151.28;;;6.28;68.83
45323;BME280;31382;50.200;8.674;2024-01-06T00:17:16;99153.63;;;6.31;68.80
45323;BME280;31382;50.200;8.674;2024-01-06T00:22:18;99151.50;;;6.26;69.93
45323;BME280;31382;50.200;8.674;2024-01-06T00:27:20;99158.94;;;6.31;69.34
45323;BME280;31382;50.200;8.674;2024-01-06T00:32:22;99155.31;;;6.24;69.17
45323;BME280;31382;50.200;8.674;2024-01-06T00:37:23;99159.91;;;6.15;69.78
45323;BME280;31382;50.200;8.674;2024-01-06T00:42:25;99160.53;;;6.17;69.88
45323;BME280;31382;50.200;8.674;2024-01-06T00:47:26;99168.22;;;6.20;68.95
45323;BME280;31382;50.200;8.674;2024-01-06T00:52:28;99163.47;;;6.30;69.73
45323;BME280;31382;50.200;8.674;2024-01-06T00:57:30;99164.06;;;6.41;69.61
45323;BME280;31382;50.200;8.674;2024-01-06T01:02:31;99161.31;;;6.49;69.79
45323;BME280;31382;50.200;8.674;2024-01-06T01:07:34;99165.09;;;6.54;69.85
45323;BME280;31382;50.200;8.674;2024-01-06T01:12:36;99162.78;;;6.51;69.98
45323;BME280;31382;50.200;8.674;2024-01-06T01:17:37;99167.06;;;6.38;69.79
45323;BME280;31382;50.200;8.674;2024-01-06T01:22:39;99172.41;;;6.38;70.64
45323;BME280;31382;50.200;8.674;2024-01-06T01:27:40;99174.00;;;6.47;70.04
45323;BME280;31382;50.200;8.674;2024-01-06T01:32:42;99177.34;;;6.49;70.15
45323;BME280;31382;50.200;8.674;2024-01-06T01:37:43;99179.44;;;6.53;70.39
45323;BME280;31382;50.200;8.674;2024-01-06T01:42:45;99186.69;;;6.68;70.94
45323;BME280;31382;50.200;8.674;2024-01-06T01:47:46;99199.50;;;6.72;70.35
45323;BME280;31382;50.200;8.674;2024-01-06T01:52:48;99198.13;;;6.77;70.37
45323;BME280;31382;50.200;8.674;2024-01-06T01:57:50;99203.59;;;6.83;70.68
45323;BME280;31382;50.200;8.674;2024-01-06T02:02:51;99211.34;;;6.93;69.82
45323;BME280;31382;50.200;8.674;2024-01-06T02:07:54;99211.63;;;6.98;70.55
45323;BME280;31382;50.200;8.674;2024-01-06T02:12:56;99212.03;;;7.10;70.01
45323;BME280;31382;50.200;8.674;2024-01-06T02:17:58;99223.03;;;7.15;70.22
45323;BME280;31382;50.200;8.674;2024-01-06T02:23:00;99213.41;;;7.21;69.98
45323;BME280;31382;50.200;8.674;2024-01-06T02:28:02;99210.47;;;7.15;69.73
45323;BME280;31382;50.200;8.674;2024-01-06T02:33:04;99216.09;;;7.21;70.19
45323;BME280;31382;50.200;8.674;2024-01-06T02:38:06;99214.53;;;7.26;69.49
45323;BME280;31382;50.200;8.674;2024-01-06T02:43:08;99214.66;;;7.33;69.65
45323;BME280;31382;50.200;8.674;2024-01-06T02:48:10;99220.25;;;7.38;68.96
45323;BME280;31382;50.200;8.674;2024-01-06T02:53:12;99225.81;;;7.37;69.55
45323;BME280;31382;50.200;8.674;2024-01-06T02:58:14;99248.19;;;7.35;69.31
45323;BME280;31382;50.200;8.674;2024-01-06T03:03:15;99243.69;;;7.36;69.97
45323;BME280;31382;50.200;8.674;2024-01-06T03:08:17;99247.00;;;7.38;69.37
45323;BME280;31382;50.200;8.674;2024-01-06T03:13:18;99240.72;;;7.46;69.79
45323;BME280;31382;50.200;8.674;2024-01-06T03:18:20;99245.72;;;7.64;69.12
45323;BME280;31382;50.200;8.674;2024-01-06T03:23:21;99244.53;;;7.66;68.87
45323;BME280;31382;50.200;8.674;2024-01-06T03:28:23;99250.16;;;7.71;68.60
45323;BME280;31382;50.200;8.674;2024-01-06T03:33:24;99250.06;;;7.65;68.60
45323;BME280;31382;50.200;8.674;2024-01-06T03:38:26;99244.72;;;7.65;69.04
45323;BME280;31382;50.200;8.674;2024-01-06T03:43:27;99242.13;;;7.71;68.17
45323;BME280;31382;50.200;8.674;2024-01-06T03:48:28;99241.94;;;7.73;68.30
45323;BME280;31382;50.200;8.674;2024-01-06T03:53:30;99245.84;;;7.70;68.44
45323;BME280;31382;50.200;8.674;2024-01-06T03:58:32;99252.75;;;7.65;68.50
45323;BME280;31382;50.200;8.674;2024-01-06T04:03:34;99257.06;;;7.66;68.44
45323;BME280;31382;50.200;8.674;2024-01-06T04:08:36;99261.75;;;7.64;68.76
45323;BME280;31382;50.200;8.674;2024-01-06T04:13:37;99267.50;;;7.61;69.10
45323;BME280;31382;50.200;8.674;2024-01-06T04:18:39;99268.31;;;7.61;68.42
45323;BME280;31382;50.200;8.674;2024-01-06T04:23:40;99276.00;;;7.64;68.94
45323;BME280;31382;50.200;8.674;2024-01-06T04:28:42;99269.97;;;7.77;68.34
45323;BME280;31382;50.200;8.674;2024-01-06T04:33:43;99263.34;;;7.88;68.02
45323;BME280;31382;50.200;8.674;2024-01-06T04:38:45;99277.09;;;7.85;68.42
45323;BME280;31382;50.200;8.674;2024-01-06T04:43:46;99266.66;;;7.75;68.39
45323;BME280;31382;50.200;8.674;2024-01-06T04:48:48;99261.75;;;7.64;68.83
45323;BME280;31382;50.200;8.674;2024-01-06T04:53:50;99257.28;;;7.64;68.22
45323;BME280;31382;50.200;8.674;2024-01-06T04:58:51;99263.16;;;7.60;68.37
45323;BME280;31382;50.200;8.674;2024-01-06T05:03:52;99267.38;;;7.54;68.41
45323;BME280;31382;50.200;8.674;2024-01-06T05:08:54;99277.72;;;7.57;68.40
45323;BME280;31382;50.200;8.674;2024-01-06T05:13:55;99279.84;;;7.62;68.03
45323;BME280;31382;50.200;8.674;2024-01-06T05:18:57;99283.44;;;7.69;68.36
45323;BME280;31382;50.200;8.674;2024-01-06T05:23:59;99289.81;;;7.68;68.31
45323;BME280;31382;50.200;8.674;2024-01-06T05:29:00;99289.38;;;7.64;68.47
45323;BME280;31382;50.200;8.674;2024-01-06T05:34:02;99291.19;;;7.64;68.25
45323;BME280;31382;50.200;8.674;2024-01-06T05:39:03;99294.72;;;7.64;68.25
45323;BME280;31382;50.200;8.674;2024-01-06T05:44:05;99297.47;;;7.71;68.67
45323;BME280;31382;50.200;8.674;2024-01-06T05:49:07;99288.63;;;7.70;68.22
45323;BME280;31382;50.200;8.674;2024-01-06T05:54:09;99287.34;;;7.66;68.60
45323;BME280;31382;50.200;8.674;2024-01-06T05:59:11;99303.66;;;7.71;68.38
45323;BME280;31382;50.200;8.674;2024-01-06T06:04:12;99311.50;;;7.73;68.33
45323;BME280;31382;50.200;8.674;2024-01-06T06:09:14;99314.81;;;7.75;68.66
45323;BME280;31382;50.200;8.674;2024-01-06T06:14:16;99315.94;;;7.81;68.57
45323;BME280;31382;50.200;8.674;2024-01-06T06:19:18;99315.94;;;7.81;68.57
45323;BME280;31382;50.200;8.674;2024-01-06T06:24:20;99320.91;;;7.84;68.13
45323;BME280;31382;50.200;8.674;2024-01-06T06:29:21;99322.75;;;7.83;68.22
45323;BME280;31382;50.200;8.674;2024-01-06T06:34:23;99332.25;;;7.86;67.77
45323;BME280;31382;50.200;8.674;2024-01-06T06:39:24;99332.63;;;7.83;68.03
45323;BME280;31382;50.200;8.674;2024-01-06T06:44:26;99349.50;;;7.83;68.16
45323;BME280;31382;50.200;8.674;2024-01-06T06:49:27;99354.13;;;7.89;67.88
45323;BME280;31382;50.200;8.674;2024-01-06T06:54:28;99360.41;;;7.97;68.18
45323;BME280;31382;50.200;8.674;2024-01-06T06:59:30;99371.41;;;8.02;67.79
45323;BME280;31382;50.200;8.674;2024-01-06T07:04:31;99383.94;;;8.01;67.82
45323;BME280;31382;50.200;8.674;2024-01-06T07:09:33;99388.16;;;7.95;68.52
45323;BME280;31382;50.200;8.674;2024-01-06T07:14:35;99392.59;;;8.03;67.96
45323;BME280;31382;50.200;8.674;2024-01-06T07:19:38;99391.34;;;8.14;68.10
45323;BME280;31382;50.200;8.674;2024-01-06T07:24:40;99397.59;;;8.21;67.62
45323;BME280;31382;50.200;8.674;2024-01-06T07:29:41;99403.97;;;8.05;67.89
45323;BME280;31382;50.200;8.674;2024-01-06T07:34:43;99419.75;;;8.00;68.48
45323;BME280;31382;50.200;8.674;2024-01-06T07:39:45;99432.66;;;7.97;68.11
45323;BME280;31382;50.200;8.674;2024-01-06T07:44:46;99428.28;;;7.81;68.36
45323;BME280;31382;50.200;8.674;2024-01-06T07:49:48;99434.38;;;7.74;69.27
45323;BME280;31382;50.200;8.674;2024-01-06T07:54:49;99444.03;;;7.75;69.00
45323;BME280;31382;50.200;8.674;2024-01-06T07:59:51;99441.91;;;7.71;68.82
45323;BME280;31382;50.200;8.674;2024-01-06T08:04:52;99448.09;;;7.71;68.95
45323;BME280;31382;50.200;8.674;2024-01-06T08:09:55;99457.06;;;7.79;69.42
45323;BME280;31382;50.200;8.674;2024-01-06T08:14:56;99475.25;;;7.83;69.35
45323;BME280;31382;50.200;8.674;2024-01-06T08:19:58;99474.72;;;7.88;69.40
45323;BME280;31382;50.200;8.674;2024-01-06T08:24:59;99482.44;;;7.83;69.67
45323;BME280;31382;50.200;8.674;2024-01-06T08:30:01;99485.94;;;7.83;69.53
45323;BME280;31382;50.200;8.674;2024-01-06T08:35:03;99483.94;;;7.85;69.15
45323;BME280;31382;50.200;8.674;2024-01-06T08:40:05;99482.06;;;7.86;70.02
45323;BME280;31382;50.200;8.674;2024-01-06T08:45:07;99488.28;;;7.86;69.80
45323;BME280;31382;50.200;8.674;2024-01-06T08:50:09;99506.47;;;7.91;69.34
45323;BME280;31382;50.200;8.674;2024-01-06T08:55:10;99500.47;;;7.89;70.20
45323;BME280;31382;50.200;8.674;2024-01-06T09:00:12;99509.03;;;7.84;69.87
45323;BME280;31382;50.200;8.674;2024-01-06T09:05:14;99514.38;;;7.84;70.31
45323;BME280;31382;50.200;8.674;2024-01-06T09:10:18;99515.13;;;7.93;70.48
45323;BME280;31382;50.200;8.674;2024-01-06T09:15:20;99525.78;;;8.01;70.07
45323;BME280;31382;50.200;8.674;2024-01-06T09:20:21;99532.97;;;8.01;70.43
45323;BME280;31382;50.200;8.674;2024-01-06T09:25:24;99528.13;;;8.19;70.11
45323;BME280;31382;50.200;8.674;2024-01-06T09:30:26;99536.28;;;8.26;69.75
45323;BME280;31382;50.200;8.674;2024-01-06T09:35:27;99537.66;;;8.22;70.25
45323;BME280;31382;50.200;8.674;2024-01-06T09:40:31;99554.31;;;8.32;70.11
45323;BME280;31382;50.200;8.674;2024-01-06T09:45:33;99560.41;;;8.41;70.03
45323;BME280;31382;50.200;8.674;2024-01-06T09:50:35;99555.94;;;8.56;69.90
45323;BME280;31382;50.200;8.674;2024-01-06T09:55:37;99552.25;;;8.57;69.74
45323;BME280;31382;50.200;8.674;2024-01-06T10:00:39;99555.22;;;8.62;69.79
45323;BME280;31382;50.200;8.674;2024-01-06T10:05:40;99562.13;;;8.57;69.91
45323;BME280;31382;50.200;8.674;2024-01-06T10:10:44;99569.50;;;8.54;69.98
45323;BME280;31382;50.200;8.674;2024-01-06T10:15:46;99562.50;;;8.68;69.71
45323;BME280;31382;50.200;8.674;2024-01-06T10:20:47;99564.53;;;8.66;69.74
45323;BME280;31382;50.200;8.674;2024-01-06T10:25:55;99567.44;;;8.80;69.42
45323;BME280;31382;50.200;8.674;2024-01-06T10:30:59;99574.63;;;8.79;69.63
45323;BME280;31382;50.200;8.674;2024-01-06T10:36:01;99578.44;;;8.85;69.37
45323;BME280;31382;50.200;8.674;2024-01-06T10:41:06;99584.44;;;8.87;69.45
45323;BME280;31382;50.200;8.674;2024-01-06T10:46:11;99581.75;;;9.02;69.22
45323;BME280;31382;50.200;8.674;2024-01-06T10:51:14;99592.19;;;9.11;68.97
45323;BME280;31382;50.200;8.674;2024-01-06T10:56:16;99581.28;;;9.13;69.25
45323;BME280;31382;50.200;8.674;2024-01-06T11:01:21;99584.59;;;9.30;68.89
45323;BME280;31382;50.200;8.674;2024-01-06T11:06:28;99567.56;;;9.38;68.89
45323;BME280;31382;50.200;8.674;2024-01-06T11:11:31;99566.28;;;9.48;68.72
45323;BME280;31382;50.200;8.674;2024-01-06T11:16:37;99570.59;;;9.64;68.48
45323;BME280;31382;50.200;8.674;2024-01-06T11:21:38;99574.38;;;9.55;68.72
45323;BME280;31382;50.200;8.674;2024-01-06T11:26:42;99561.56;;;9.50;68.85
45323;BME280;31382;50.200;8.674;2024-01-06T11:42:56;99559.88;;;9.86;67.89
45323;BME280;31382;50.200;8.674;2024-01-06T11:48:00;99553.56;;;9.93;67.62
45323;BME280;31382;50.200;8.674;2024-01-06T11:53:04;99548.06;;;10.02;67.83
45323;BME280;31382;50.200;8.674;2024-01-06T11:58:06;99544.13;;;10.26;67.17
45323;BME280;31382;50.200;8.674;2024-01-06T12:03:08;99545.34;;;10.45;66.60
45323;BME280;31382;50.200;8.674;2024-01-06T12:08:09;99543.19;;;10.62;66.48
45323;BME280;31382;50.200;8.674;2024-01-06T12:13:11;99538.16;;;10.80;66.48
45323;BME280;31382;50.200;8.674;2024-01-06T12:18:15;99541.75;;;10.66;66.83
45323;BME280;31382;50.200;8.674;2024-01-06T12:23:28;99543.03;;;10.70;66.93
45323;BME280;31382;50.200;8.674;2024-01-06T12:28:29;99546.13;;;10.67;66.90
45323;BME280;31382;50.200;8.674;2024-01-06T12:33:31;99545.19;;;10.53;67.21
45323;BME280;31382;50.200;8.674;2024-01-06T12:38:37;99549.38;;;10.34;67.09
45323;BME280;31382;50.200;8.674;2024-01-06T12:43:38;99546.19;;;10.45;66.92
45323;BME280;31382;50.200;8.674;2024-01-06T12:48:41;99552.81;;;10.49;67.13
45323;BME280;31382;50.200;8.674;2024-01-06T12:53:43;99547.56;;;10.63;66.99
45323;BME280;31382;50.200;8.674;2024-01-06T12:58:45;99549.53;;;10.54;67.50
45323;BME280;31382;50.200;8.674;2024-01-06T13:03:47;99562.63;;;10.64;67.13
45323;BME280;31382;50.200;8.674;2024-01-06T13:08:49;99561.97;;;10.55;67.20
45323;BME280;31382;50.200;8.674;2024-01-06T13:13:50;99569.09;;;10.69;67.10
45323;BME280;31382;50.200;8.674;2024-01-06T13:18:52;99563.63;;;10.84;66.68
45323;BME280;31382;50.200;8.674;2024-01-06T13:23:56;99567.78;;;10.94;66.88
45323;BME280;31382;50.200;8.674;2024-01-06T13:29:02;99570.47;;;10.94;66.47
45323;BME280;31382;50.200;8.674;2024-01-06T13:34:03;99576.72;;;10.94;66.74
45323;BME280;31382;50.200;8.674;2024-01-06T13:39:05;99582.47;;;10.91;66.45
45323;BME280;31382;50.200;8.674;2024-01-06T13:44:08;99586.28;;;10.75;66.90
45323;BME280;31382;50.200;8.674;2024-01-06T13:49:09;99590.63;;;10.76;66.66
45323;BME280;31382;50.200;8.674;2024-01-06T13:54:11;99600.72;;;10.67;66.39
45323;BME280;31382;50.200;8.674;2024-01-06T13:59:12;99600.81;;;10.52;66.87
45323;BME280;31382;50.200;8.674;2024-01-06T14:04:14;99608.03;;;10.30;67.45
45323;BME280;31382;50.200;8.674;2024-01-06T14:09:15;99618.38;;;10.12;67.68
45323;BME280;31382;50.200;8.674;2024-01-06T14:14:17;99616.94;;;9.95;67.96
45323;BME280;31382;50.200;8.674;2024-01-06T14:19:18;99617.75;;;9.73;68.15
45323;BME280;31382;50.200;8.674;2024-01-06T14:24:20;99636.09;;;9.55;67.73
45323;BME280;31382;50.200;8.674;2024-01-06T14:29:26;99633.88;;;9.44;67.50
45323;BME280;31382;50.200;8.674;2024-01-06T14:34:27;99632.88;;;9.45;67.20
45323;BME280;31382;50.200;8.674;2024-01-06T14:39:29;99640.09;;;9.29;66.97
45323;BME280;31382;50.200;8.674;2024-01-06T14:44:30;99635.75;;;9.28;66.86
45323;BME280;31382;50.200;8.674;2024-01-06T14:49:32;99643.50;;;9.23;66.87
45323;BME280;31382;50.200;8.674;2024-01-06T14:54:34;99654.31;;;9.30;66.54
45323;BME280;31382;50.200;8.674;2024-01-06T14:59:36;99655.38;;;9.29;66.48
45323;BME280;31382;50.200;8.674;2024-01-06T15:04:40;99658.97;;;9.21;66.44
45323;BME280;31382;50.200;8.674;2024-01-06T15:09:42;99662.94;;;9.25;66.18
45323;BME280;31382;50.200;8.674;2024-01-06T15:14:43;99670.91;;;9.19;66.37
45323;BME280;31382;50.200;8.674;2024-01-06T15:19:46;99671.00;;;9.10;66.52
45323;BME280;31382;50.200;8.674;2024-01-06T15:24:48;99670.31;;;8.93;66.54
45323;BME280;31382;50.200;8.674;2024-01-06T15:29:58;99679.72;;;9.04;66.04
45323;BME280;31382;50.200;8.674;2024-01-06T15:35:03;99686.56;;;8.92;66.12
45323;BME280;31382;50.200;8.674;2024-01-06T15:40:05;99681.75;;;8.87;66.11
45323;BME280;31382;50.200;8.674;2024-01-06T15:45:07;99683.78;;;8.85;65.86
45323;BME280;31382;50.200;8.674;2024-01-06T15:50:09;99690.53;;;8.81;65.58
45323;BME280;31382;50.200;8.674;2024-01-06T15:55:11;99686.63;;;8.84;65.66
45323;BME280;31382;50.200;8.674;2024-01-06T16:00:13;99695.72;;;8.83;65.20
45323;BME280;31382;50.200;8.674;2024-01-06T16:05:14;99711.38;;;8.71;65.58
45323;BME280;31382;50.200;8.674;2024-01-06T16:10:17;99700.34;;;8.66;65.68
45323;BME280;31382;50.200;8.674;2024-01-06T16:15:18;99707.19;;;8.68;65.36
45323;BME280;31382;50.200;8.674;2024-01-06T16:20:21;99724.41;;;8.74;65.22
45323;BME280;31382;50.200;8.674;2024-01-06T16:25:23;99718.97;;;8.82;64.82
45323;BME280;31382;50.200;8.674;2024-01-06T16:30:24;99729.16;;;8.87;64.76
45323;BME280;31382;50.200;8.674;2024-01-06T16:35:26;99738.09;;;8.79;65.21
45323;BME280;31382;50.200;8.674;2024-01-06T16:40:28;99735.50;;;8.71;65.23
45323;BME280;31382;50.200;8.674;2024-01-06T16:45:30;99746.06;;;8.64;65.34
45323;BME280;31382;50.200;8.674;2024-01-06T16:50:33;99756.63;;;8.66;65.28
45323;BME280;31382;50.200;8.674;2024-01-06T16:55:39;99766.34;;;8.67;65.21
45323;BME280;31382;50.200;8.674;2024-01-06T17:00:41;99761.97;;;8.66;65.00
45323;BME280;31382;50.200;8.674;2024-01-06T17:05:43;99762.97;;;8.65;65.20
45323;BME280;31382;50.200;8.674;2024-01-06T17:10:44;99772.44;;;8.52;65.58
45323;BME280;31382;50.200;8.674;2024-01-06T17:15:45;99770.25;;;8.56;65.41
45323;BME280;31382;50.200;8.674;2024-01-06T17:20:47;99784.53;;;8.40;65.97
45323;BME280;31382;50.200;8.674;2024-01-06T17:25:48;99786.06;;;8.43;65.46
45323;BME280;31382;50.200;8.674;2024-01-06T17:30:50;99782.25;;;8.29;66.09
45323;BME280;31382;50.200;8.674;2024-01-06T17:35:51;99787.31;;;8.24;66.15
45323;BME280;31382;50.200;8.674;2024-01-06T17:40:54;99786.78;;;8.28;65.60
45323;BME280;31382;50.200;8.674;2024-01-06T17:45:55;99790.31;;;8.21;65.95
45323;BME280;31382;50.200;8.674;2024-01-06T17:50:57;99795.19;;;8.17;65.87
45323;BME280;31382;50.200;8.674;2024-01-06T17:55:58;99802.06;;;8.11;66.52
45323;BME280;31382;50.200;8.674;2024-01-06T18:01:00;99806.59;;;8.11;66.46
45323;BME280;31382;50.200;8.674;2024-01-06T18:06:01;99801.09;;;8.04;66.43
45323;BME280;31382;50.200;8.674;2024-01-06T18:11:03;99801.78;;;8.06;66.87
45323;BME280;31382;50.200;8.674;2024-01-06T18:16:07;99795.59;;;7.98;66.44
45323;BME280;31382;50.200;8.674;2024-01-06T18:21:08;99802.13;;;7.95;66.50
45323;BME280;31382;50.200;8.674;2024-01-06T18:26:10;99817.88;;;7.98;66.63
45323;BME280;31382;50.200;8.674;2024-01-06T18:31:11;99824.22;;;7.97;66.57
45323;BME280;31382;50.200;8.674;2024-01-06T18:36:13;99831.38;;;8.05;66.88
45323;BME280;31382;50.200;8.674;2024-01-06T18:41:14;99822.00;;;8.09;66.70
45323;BME280;31382;50.200;8.674;2024-01-06T18:46:16;99829.88;;;8.02;66.88
45323;BME280;31382;50.200;8.674;2024-01-06T18:51:17;99829.53;;;8.05;66.77
45323;BME280;31382;50.200;8.674;2024-01-06T18:56:19;99833.19;;;8.12;66.39
45323;BME280;31382;50.200;8.674;2024-01-06T19:01:20;99839.53;;;8.11;66.39
45323;BME280;31382;50.200;8.674;2024-01-06T19:06:22;99840.44;;;8.04;66.59
45323;BME280;31382;50.200;8.674;2024-01-06T19:11:23;99842.44;;;8.02;66.59
45323;BME280;31382;50.200;8.674;2024-01-06T19:16:25;99842.25;;;8.03;66.64
45323;BME280;31382;50.200;8.674;2024-01-06T19:21:26;99845.09;;;8.10;66.48
45323;BME280;31382;50.200;8.674;2024-01-06T19:26:28;99848.75;;;8.09;66.45
45323;BME280;31382;50.200;8.674;2024-01-06T19:31:29;99853.63;;;8.05;66.75
45323;BME280;31382;50.200;8.674;2024-01-06T19:36:31;99856.97;;;8.16;66.41
45323;BME280;31382;50.200;8.674;2024-01-06T19:41:32;99854.78;;;8.11;66.97
45323;BME280;31382;50.200;8.674;2024-01-06T19:46:34;99851.97;;;8.04;67.28
45323;BME280;31382;50.200;8.674;2024-01-06T19:51:36;99856.50;;;8.04;67.27
45323;BME280;31382;50.200;8.674;2024-01-06T19:56:37;99854.78;;;8.11;66.87
45323;BME280;31382;50.200;8.674;2024-01-06T20:01:39;99862.00;;;8.02;66.91
45323;BME280;31382;50.200;8.674;2024-01-06T20:06:41;99860.19;;;7.94;67.44
45323;BME280;31382;50.200;8.674;2024-01-06T20:11:43;99865.69;;;8.01;67.34
45323;BME280;31382;50.200;8.674;2024-01-06T20:16:44;99861.50;;;7.99;67.08
45323;BME280;31382;50.200;8.674;2024-01-06T20:21:45;99867.56;;;7.92;67.27
45323;BME280;31382;50.200;8.674;2024-01-06T20:26:47;99869.72;;;7.89;67.92
45323;BME280;31382;50.200;8.674;2024-01-06T20:31:48;99861.88;;;7.87;67.52
45323;BME280;31382;50.200;8.674;2024-01-06T20:36:50;99871.41;;;7.82;68.04
45323;BME280;31382;50.200;8.674;2024-01-06T20:41:52;99876.59;;;7.83;67.74
45323;BME280;31382;50.200;8.674;2024-01-06T20:46:53;99873.59;;;7.86;67.80
45323;BME280;31382;50.200;8.674;2024-01-06T20:51:55;99881.44;;;7.88;67.62
45323;BME280;31382;50.200;8.674;2024-01-06T20:56:56;99877.41;;;8.00;67.42
45323;BME280;31382;50.200;8.674;2024-01-06T21:01:58;99873.41;;;7.96;67.80
45323;BME280;31382;50.200;8.674;2024-01-06T21:06:59;99876.06;;;8.04;67.81
45323;BME280;31382;50.200;8.674;2024-01-06T21:12:01;99872.84;;;8.09;67.55
45323;BME280;31382;50.200;8.674;2024-01-06T21:17:04;99877.69;;;8.13;67.33
45323;BME280;31382;50.200;8.674;2024-01-06T21:22:05;99877.34;;;8.17;67.28
45323;BME280;31382;50.200;8.674;2024-01-06T21:27:07;99877.22;;;8.10;67.53
45323;BME280;31382;50.200;8.674;2024-01-06T21:32:08;99879.06;;;8.01;67.89
45323;BME280;31382;50.200;8.674;2024-01-06T21:37:10;99880.09;;;8.00;67.84
45323;BME280;31382;50.200;8.674;2024-01-06T21:42:11;99886.78;;;7.96;68.20
45323;BME280;31382;50.200;8.674;2024-01-06T21:47:13;99886.28;;;7.92;67.72
45323;BME280;31382;50.200;8.674;2024-01-06T21:52:14;99888.28;;;7.99;67.75
45323;BME280;31382;50.200;8.674;2024-01-06T21:57:16;99903.53;;;7.90;68.16
45323;BME280;31382;50.200;8.674;2024-01-06T22:02:17;99900.16;;;7.96;67.73
45323;BME280;31382;50.200;8.674;2024-01-06T22:07:19;99914.41;;;7.88;67.86
45323;BME280;31382;50.200;8.674;2024-01-06T22:12:20;99921.59;;;7.71;68.03
45323;BME280;31382;50.200;8.674;2024-01-06T22:17:22;99919.25;;;7.68;68.01
45323;BME280;31382;50.200;8.674;2024-01-06T22:22:24;99927.44;;;7.67;67.82
45323;BME280;31382;50.200;8.674;2024-01-06T22:27:27;99928.13;;;7.61;67.85
45323;BME280;31382;50.200;8.674;2024-01-06T22:32:28;99929.94;;;7.60;68.44
45323;BME280;31382;50.200;8.674;2024-01-06T22:37:30;99927.78;;;7.55;68.24
45323;BME280;31382;50.200;8.674;2024-01-06T22:42:31;99932.28;;;7.55;67.87
45323;BME280;31382;50.200;8.674;2024-01-06T22:47:33;99936.63;;;7.48;68.13
45323;BME280;31382;50.200;8.674;2024-01-06T22:52:35;99929.94;;;7.52;68.10
45323;BME280;31382;50.200;8.674;2024-01-06T22:57:36;99935.97;;;7.46;68.21
45323;BME280;31382;50.200;8.674;2024-01-06T23:02:38;99936.47;;;7.41;68.38
45323;BME280;31382;50.200;8.674;2024-01-06T23:07:40;99932.97;;;7.41;67.75
45323;BME280;31382;50.200;8.674;2024-01-06T23:12:41;99940.31;;;7.39;67.87
45323;BME280;31382;50.200;8.674;2024-01-06T23:17:43;99945.00;;;7.37;68.21
45323;BME280;31382;50.200;8.674;2024-01-06T23:22:44;99945.31;;;7.25;68.01
45323;BME280;31382;50.200;8.674;2024-01-06T23:27:46;99955.69;;;7.37;67.86
45323;BME280;31382;50.200;8.674;2024-01-06T23:32:47;99957.84;;;7.33;67.72
45323;BME280;31382;50.200;8.674;2024-01-06T23:37:49;99962.69;;;7.29;68.02
45323;BME280;31382;50.200;8.674;2024-01-06T23:42:52;99976.22;;;7.28;68.06
45323;BME280;31382;50.200;8.674;2024-01-06T23:47:53;99971.69;;;7.28;67.76
45323;BME280;31382;50.200;8.674;2024-01-06T23:52:55;99982.56;;;7.27;67.65
45323;BME280;31382;50.200;8.674;2024-01-06T23:57:56;99972.03;;;7.17;68.08
